Time;durP1;ratioP1;P1;durP2;ratioP2;P2;SDS_P1;SDS_P2;PMS_P1;PMS_P2;Temp;Humidity;BMP_temperature;BMP_pressure;BME280_temperature;BME280_humidity;BME280_pressure;Samples;Min_cycle;Max_cycle;Signal;HPM_P1;HPM_P2
2022/05/13 00:01:51;;;;;;;14.32;3.78;;;16.30;99.90;;;;;;4975391;28;20038;-76
2022/05/13 00:04:16;;;;;;;17.27;4.10;;;16.30;99.90;;;;;;4975663;28;20549;-76
2022/05/13 00:06:42;;;;;;;14.70;3.42;;;16.30;99.90;;;;;;4975625;28;20042;-76
2022/05/13 00:09:08;;;;;;;14.23;3.70;;;16.20;99.90;;;;;;4975458;28;20027;-76
2022/05/13 00:11:34;;;;;;;14.23;3.80;;;16.20;99.90;;;;;;4974480;28;20025;-76
2022/05/13 00:14:00;;;;;;;16.50;3.63;;;16.20;99.90;;;;;;4975007;28;20374;-76
2022/05/13 00:16:26;;;;;;;14.13;3.95;;;16.30;99.90;;;;;;4974968;28;20030;-76
2022/05/13 00:18:52;;;;;;;8.55;3.15;;;16.20;99.90;;;;;;4975566;28;20038;-76
2022/05/13 00:21:18;;;;;;;15.68;3.90;;;16.20;99.90;;;;;;4975642;28;20086;-76
2022/05/13 00:23:44;;;;;;;17.70;3.35;;;16.20;99.90;;;;;;4975339;28;20030;-76
2022/05/13 00:26:10;;;;;;;14.23;3.70;;;16.10;99.90;;;;;;4974679;28;20054;-76
2022/05/13 00:28:36;;;;;;;14.75;3.03;;;16.10;99.90;;;;;;4974633;28;20059;-76
2022/05/13 00:31:04;;;;;;;14.93;3.85;;;16.10;99.90;;;;;;4974802;28;20026;-76
2022/05/13 00:33:32;;;;;;;9.95;3.28;;;16.10;99.90;;;;;;4975255;28;20019;-76
2022/05/13 00:35:58;;;;;;;10.02;3.45;;;16.10;99.90;;;;;;4975219;28;20031;-76
2022/05/13 00:38:23;;;;;;;10.13;3.45;;;16.00;99.90;;;;;;4975113;28;20029;-76
2022/05/13 00:40:49;;;;;;;7.85;3.40;;;16.00;99.90;;;;;;4975482;28;20085;-76
2022/05/13 00:43:39;;;;;;;11.55;3.97;;;15.90;99.90;;;;;;4974913;28;20077;-75
2022/05/13 00:46:05;;;;;;;11.90;3.63;;;15.90;99.90;;;;;;4974617;28;20035;-76
2022/05/13 00:48:31;;;;;;;15.52;3.88;;;16.00;99.90;;;;;;4974891;28;20027;-76
2022/05/13 00:50:58;;;;;;;12.35;3.47;;;16.00;99.90;;;;;;4974930;28;20069;-76
2022/05/13 00:53:25;;;;;;;12.70;3.20;;;15.90;99.90;;;;;;4974423;28;20055;-75
2022/05/13 00:55:52;;;;;;;15.43;3.85;;;15.90;99.90;;;;;;4974842;28;20034;-76
2022/05/13 00:58:21;;;;;;;10.43;3.63;;;15.80;99.90;;;;;;4974331;28;20506;-76
2022/05/13 01:00:47;;;;;;;11.73;4.07;;;15.90;99.90;;;;;;4974609;28;20034;-75
2022/05/13 01:03:13;;;;;;;12.43;3.70;;;15.90;99.90;;;;;;4974928;28;20026;-76
2022/05/13 01:05:46;;;;;;;11.27;4.22;;;15.80;99.90;;;;;;4974746;28;20037;-76
2022/05/13 01:08:12;;;;;;;13.43;3.58;;;15.80;99.90;;;;;;4974482;28;20046;-76
2022/05/13 01:10:39;;;;;;;13.05;4.00;;;15.80;99.90;;;;;;4974576;28;20031;-76
2022/05/13 01:13:10;;;;;;;13.07;4.25;;;15.90;99.90;;;;;;4974187;28;20478;-76
2022/05/13 01:15:39;;;;;;;10.57;3.25;;;15.80;99.90;;;;;;4974599;28;20364;-76
2022/05/13 01:18:06;;;;;;;18.17;3.58;;;15.90;99.90;;;;;;4974132;28;20031;-76
2022/05/13 01:20:38;;;;;;;18.88;4.47;;;15.90;99.90;;;;;;4972667;28;20117;-76
2022/05/13 01:23:11;;;;;;;13.93;3.70;;;15.90;99.90;;;;;;4974169;28;20035;-76
2022/05/13 01:25:49;;;;;;;9.48;3.53;;;15.90;99.90;;;;;;4974827;28;20113;-75
2022/05/13 01:28:18;;;;;;;9.77;3.72;;;16.00;99.90;;;;;;4974070;28;20436;-76
2022/05/13 01:30:47;;;;;;;10.20;3.50;;;16.00;99.90;;;;;;4974464;28;20481;-75
2022/05/13 01:33:14;;;;;;;15.77;3.80;;;16.00;99.90;;;;;;4973712;28;20086;-76
2022/05/13 01:35:45;;;;;;;10.15;3.78;;;16.00;99.90;;;;;;4974194;28;20486;-75
2022/05/13 01:38:12;;;;;;;10.27;4.35;;;16.10;99.90;;;;;;4973295;28;20034;-75
2022/05/13 01:40:38;;;;;;;10.20;3.78;;;16.10;99.90;;;;;;4974189;28;20383;-76
2022/05/13 01:43:05;;;;;;;12.63;3.78;;;16.10;99.90;;;;;;4972916;28;20041;-75
2022/05/13 01:45:32;;;;;;;18.50;6.18;;;16.10;99.90;;;;;;4974074;28;20430;-75
2022/05/13 01:47:57;;;;;;;9.25;3.40;;;16.10;99.90;;;;;;4974231;28;20041;-75
2022/05/13 01:50:23;;;;;;;16.20;4.00;;;16.20;99.90;;;;;;4973457;28;20019;-76
2022/05/13 01:52:49;;;;;;;14.00;3.78;;;16.20;99.90;;;;;;4973689;28;20046;-75
2022/05/13 01:55:16;;;;;;;11.40;4.32;;;16.20;99.90;;;;;;4973927;28;20030;-76
2022/05/13 01:57:42;;;;;;;14.18;4.20;;;16.20;99.90;;;;;;4973677;28;20030;-76
2022/05/13 02:00:08;;;;;;;13.60;4.35;;;16.20;99.90;;;;;;4973839;28;20034;-76
2022/05/13 02:03:44;;;;;;;12.30;3.65;;;16.30;99.90;;;;;;4973713;28;20034;-76
2022/05/13 02:05:22;;;;;;;12.30;4.10;;;16.20;99.90;;;;;;4973203;28;20474;-76
2022/05/13 02:07:48;;;;;;;9.98;3.72;;;16.20;99.90;;;;;;4973768;28;20031;-75
2022/05/13 02:10:14;;;;;;;11.57;3.65;;;16.20;99.90;;;;;;4973834;28;20022;-76
2022/05/13 02:12:40;;;;;;;13.00;3.80;;;16.20;99.90;;;;;;4973465;28;20023;-76
2022/05/13 02:15:07;;;;;;;12.63;3.90;;;16.10;99.90;;;;;;4973857;28;20136;-76
2022/05/13 02:17:32;;;;;;;14.38;3.85;;;16.10;99.90;;;;;;4973495;28;20030;-76
2022/05/13 02:19:58;;;;;;;18.98;5.13;;;16.00;99.90;;;;;;4973694;28;20034;-76
2022/05/13 02:22:24;;;;;;;15.25;5.45;;;15.90;99.90;;;;;;4973491;28;20105;-76
2022/05/13 02:24:50;;;;;;;13.52;4.03;;;16.00;99.90;;;;;;4974106;28;20553;-76
2022/05/13 02:27:16;;;;;;;9.63;3.45;;;15.90;99.90;;;;;;4972556;28;20039;-75
2022/05/13 02:29:41;;;;;;;11.18;4.03;;;15.80;99.90;;;;;;4973524;28;20488;-76
2022/05/13 02:32:07;;;;;;;14.60;3.72;;;15.80;99.90;;;;;;4973617;28;20035;-76
2022/05/13 02:34:36;;;;;;;10.07;3.70;;;15.80;99.90;;;;;;4973672;28;20019;-76
2022/05/13 02:37:03;;;;;;;8.93;3.78;;;15.80;99.90;;;;;;4973268;28;20034;-76
2022/05/13 02:39:29;;;;;;;14.50;4.20;;;15.70;99.90;;;;;;4973197;28;20023;-76
2022/05/13 02:41:54;;;;;;;12.07;4.18;;;15.70;99.90;;;;;;4973733;28;20067;-76
2022/05/13 02:44:21;;;;;;;9.95;4.43;;;15.70;99.90;;;;;;4973460;28;20065;-75
2022/05/13 02:46:47;;;;;;;11.18;3.95;;;15.70;99.90;;;;;;4973405;28;20448;-75
2022/05/13 02:49:14;;;;;;;10.57;4.13;;;15.70;99.90;;;;;;4975131;28;20019;-76
2022/05/13 02:51:40;;;;;;;9.70;4.35;;;15.60;99.90;;;;;;4977151;28;20027;-76
2022/05/13 02:54:07;;;;;;;10.93;3.92;;;15.60;99.90;;;;;;4976330;28;20126;-76
2022/05/13 02:56:33;;;;;;;11.45;3.92;;;15.50;99.90;;;;;;4975403;28;20472;-76
2022/05/13 02:58:59;;;;;;;16.40;4.20;;;15.50;99.90;;;;;;4976957;28;20026;-76
2022/05/13 03:01:25;;;;;;;10.82;4.30;;;15.50;99.90;;;;;;4977130;28;20034;-76
2022/05/13 03:03:51;;;;;;;11.13;4.30;;;15.50;99.90;;;;;;4987549;28;20514;-76
2022/05/13 03:06:19;;;;;;;13.35;5.07;;;15.50;99.90;;;;;;4995999;28;20023;-75
2022/05/13 03:08:46;;;;;;;12.73;3.83;;;15.50;99.90;;;;;;4983559;28;20027;-76
2022/05/13 03:11:11;;;;;;;8.30;4.10;;;15.50;99.90;;;;;;4976864;28;20532;-76
2022/05/13 03:13:37;;;;;;;14.52;4.43;;;15.60;99.90;;;;;;4976357;28;20117;-75
2022/05/13 03:16:09;;;;;;;12.77;4.18;;;15.50;99.90;;;;;;4976618;28;20102;-76
2022/05/13 03:18:39;;;;;;;10.68;3.65;;;15.60;99.90;;;;;;4976795;28;20023;-75
2022/05/13 03:21:04;;;;;;;14.38;4.85;;;15.50;99.90;;;;;;4976362;28;20026;-75
2022/05/13 03:23:30;;;;;;;13.23;4.00;;;15.50;99.90;;;;;;4976479;28;20027;-76
2022/05/13 03:25:56;;;;;;;13.60;4.82;;;15.50;99.90;;;;;;4975671;28;20038;-76
2022/05/13 03:28:22;;;;;;;13.82;4.63;;;15.40;99.90;;;;;;4976283;28;20031;-76
2022/05/13 03:30:50;;;;;;;12.60;4.00;;;15.50;99.90;;;;;;4976481;28;20022;-76
2022/05/13 03:33:17;;;;;;;11.70;4.40;;;15.50;99.90;;;;;;4976286;28;20043;-76
2022/05/13 03:35:43;;;;;;;14.20;4.43;;;15.50;99.90;;;;;;4976050;28;20029;-75
2022/05/13 03:38:09;;;;;;;14.23;4.30;;;15.60;99.90;;;;;;4975999;28;20023;-76
2022/05/13 03:40:36;;;;;;;11.20;3.97;;;15.60;99.90;;;;;;4976060;28;20498;-76
2022/05/13 03:43:03;;;;;;;13.65;4.25;;;15.70;99.90;;;;;;4975904;28;20027;-76
2022/05/13 03:45:30;;;;;;;13.45;4.03;;;15.70;99.90;;;;;;4976292;28;20111;-75
2022/05/13 03:47:56;;;;;;;15.45;4.25;;;15.70;99.90;;;;;;4975464;28;20734;-76
2022/05/13 03:50:23;;;;;;;21.13;4.70;;;15.70;99.90;;;;;;4975947;28;20109;-75
2022/05/13 03:52:49;;;;;;;12.82;4.35;;;15.80;99.90;;;;;;4975834;28;20035;-76
2022/05/13 03:55:15;;;;;;;13.57;4.38;;;15.80;99.90;;;;;;4975948;28;20059;-76
2022/05/13 03:57:40;;;;;;;12.85;4.35;;;15.80;99.90;;;;;;4976199;28;20478;-76
2022/05/13 04:00:09;;;;;;;9.25;4.28;;;15.70;99.90;;;;;;4974721;28;20030;-76
2022/05/13 04:02:35;;;;;;;10.68;4.78;;;15.70;99.90;;;;;;4975125;28;20026;-76
2022/05/13 04:10:29;;;;;;;12.38;4.40;;;15.40;99.90;;;;;;4975544;28;20394;-76
2022/05/13 04:18:23;;;;;;;13.43;4.38;;;15.40;99.90;;;;;;4975787;28;20038;-75
2022/05/13 04:20:49;;;;;;;15.15;4.65;;;15.30;99.90;;;;;;4975354;28;20035;-76
2022/05/13 04:23:16;;;;;;;12.75;4.45;;;15.40;99.90;;;;;;4974251;28;20038;-75
2022/05/13 04:25:42;;;;;;;11.93;4.80;;;15.40;99.90;;;;;;4978939;28;20034;-76
2022/05/13 04:28:08;;;;;;;13.68;4.45;;;15.40;99.90;;;;;;4974628;28;20026;-76
2022/05/13 04:30:33;;;;;;;13.07;4.30;;;15.40;99.90;;;;;;4974946;28;20027;-76
2022/05/13 04:32:59;;;;;;;10.90;3.85;;;15.40;99.90;;;;;;4973374;28;20061;-75
2022/05/13 04:35:24;;;;;;;8.75;4.30;;;15.40;99.90;;;;;;4977540;28;20387;-76
2022/05/13 04:37:50;;;;;;;11.35;4.03;;;15.40;99.90;;;;;;4973949;28;20061;-75
2022/05/13 04:40:16;;;;;;;12.50;4.97;;;15.50;99.90;;;;;;4975177;28;20443;-76
2022/05/13 04:42:50;;;;;;;9.18;4.20;;;15.50;99.90;;;;;;4974203;28;20106;-79
2022/05/13 04:45:34;;;;;;;16.77;5.05;;;15.60;99.90;;;;;;4974477;28;20102;-76
2022/05/13 04:48:26;;;;;;;17.35;4.78;;;15.50;99.90;;;;;;4969086;28;20476;-76
2022/05/13 04:50:53;;;;;;;9.95;4.00;;;15.60;99.90;;;;;;4973809;28;20054;-75
2022/05/13 04:53:25;;;;;;;14.85;4.63;;;15.60;99.90;;;;;;4974157;28;20117;-74
2022/05/13 04:55:52;;;;;;;13.50;5.07;;;15.70;99.90;;;;;;4973895;28;20094;-76
2022/05/13 04:58:18;;;;;;;20.48;5.68;;;15.60;99.90;;;;;;4974408;28;20110;-76
2022/05/13 05:00:45;;;;;;;15.07;5.15;;;15.60;99.90;;;;;;4974026;28;20122;-76
2022/05/13 05:03:11;;;;;;;14.38;6.15;;;15.70;99.90;;;;;;4974655;28;20018;-76
2022/05/13 05:05:37;;;;;;;12.60;5.18;;;15.80;99.90;;;;;;4973505;28;20034;-76
2022/05/13 05:08:03;;;;;;;26.88;7.22;;;15.90;99.90;;;;;;4973351;28;20106;-77
2022/05/13 05:10:29;;;;;;;20.67;5.85;;;16.00;99.90;;;;;;4974222;28;20038;-76
2022/05/13 05:12:56;;;;;;;22.35;5.80;;;16.00;99.90;;;;;;4974121;28;20029;-76
2022/05/13 05:15:22;;;;;;;13.80;5.95;;;16.10;99.90;;;;;;4974519;28;20030;-75
2022/05/13 05:17:48;;;;;;;15.70;5.93;;;16.10;99.90;;;;;;4974427;28;20027;-76
2022/05/13 10:24:04;;;;;;;13.95;7.72;;;21.80;99.90;;;;;;5915076;23;20737;-76
2022/05/13 10:26:41;;;;;;;16.02;7.82;;;22.70;99.90;;;;;;4972172;28;20039;-76
2022/05/13 10:29:15;;;;;;;12.30;7.07;;;23.00;99.40;;;;;;4973323;28;20063;-78
2022/05/13 10:31:43;;;;;;;11.73;7.50;;;22.70;99.90;;;;;;4973684;28;20027;-76
2022/05/13 10:34:29;;;;;;;16.23;7.00;;;23.20;98.70;;;;;;4972478;28;20023;-75
2022/05/13 10:37:19;;;;;;;17.35;7.13;;;23.50;99.60;;;;;;4974134;28;20023;-76
2022/05/13 10:40:01;;;;;;;12.88;6.15;;;23.20;98.50;;;;;;4973068;28;20605;-75
2022/05/13 10:42:47;;;;;;;14.63;6.65;;;23.20;99.10;;;;;;4974027;28;20031;-75
2022/05/13 10:45:27;;;;;;;14.98;6.45;;;23.10;98.20;;;;;;4973435;28;20043;-75
2022/05/13 10:48:02;;;;;;;12.60;6.47;;;23.10;97.40;;;;;;4972798;28;20077;-75
2022/05/13 10:50:45;;;;;;;11.68;6.25;;;23.50;97.10;;;;;;4973359;28;20137;-75
2022/05/13 10:53:19;;;;;;;14.27;7.03;;;24.70;95.30;;;;;;4973032;28;20019;-75
2022/05/13 10:56:26;;;;;;;14.25;6.75;;;24.40;95.60;;;;;;4974793;28;20130;-75
2022/05/13 10:59:29;;;;;;;13.48;6.55;;;24.70;94.80;;;;;;4974160;28;20362;-75
2022/05/13 11:02:33;;;;;;;16.35;7.05;;;24.30;93.40;;;;;;4953745;28;20027;-75
2022/05/13 11:05:35;;;;;;;9.32;5.00;;;24.20;93.60;;;;;;4944881;29;20075;-75
2022/05/13 11:08:15;;;;;;;;;;;23.80;92.50;;;;;;4951844;29;20483;-75
2022/05/13 11:10:55;;;;;;;12.55;6.13;;;23.70;93.10;;;;;;4953981;28;20001;-75
2022/05/13 11:13:50;;;;;;;9.95;5.88;;;24.00;92.90;;;;;;4955138;29;20557;-75
2022/05/13 11:16:51;;;;;;;11.48;5.80;;;23.70;93.00;;;;;;4954182;29;20039;-75
2022/05/13 11:19:27;;;;;;;11.20;5.88;;;23.20;93.70;;;;;;4942987;29;20024;-75
2022/05/13 11:22:06;;;;;;;9.95;5.72;;;23.60;94.10;;;;;;4946240;29;20074;-76
2022/05/13 15:26:06;;;;;;;6.38;4.38;;;25.40;79.90;;;;;;5686550;23;20053;-72
2022/05/13 15:28:35;;;;;;;7.93;3.90;;;25.00;81.60;;;;;;4964274;28;20620;-72
2022/05/13 15:31:01;;;;;;;8.55;4.25;;;24.80;82.60;;;;;;4961929;28;20034;-77
2022/05/13 15:33:27;;;;;;;8.63;4.13;;;24.80;83.80;;;;;;4970361;28;20027;-72
2022/05/13 15:35:53;;;;;;;7.45;4.00;;;24.90;82.50;;;;;;4974892;28;20510;-72
2022/05/13 15:38:19;;;;;;;6.90;4.47;;;25.10;85.00;;;;;;4974830;28;20022;-72
2022/05/13 15:40:45;;;;;;;7.60;4.20;;;25.00;82.50;;;;;;4957802;28;20042;-72
2022/05/13 15:43:11;;;;;;;6.05;3.70;;;24.80;83.90;;;;;;4964979;28;20019;-73
2022/05/13 15:45:41;;;;;;;7.95;4.00;;;24.70;84.30;;;;;;4968289;28;20046;-73
2022/05/13 15:48:08;;;;;;;11.30;4.15;;;24.50;85.20;;;;;;4974917;28;20153;-72
2022/05/13 15:53:18;;;;;;;7.70;4.20;;;24.90;82.80;;;;;;4976896;28;20057;-72
2022/05/13 15:55:55;;;;;;;7.78;3.60;;;25.00;81.70;;;;;;4972624;28;20035;-73
2022/05/13 15:58:34;;;;;;;7.10;4.22;;;25.30;81.30;;;;;;4966329;28;20365;-72
2022/05/13 16:01:00;;;;;;;8.10;3.85;;;25.40;80.00;;;;;;4967629;28;20074;-72
2022/05/13 16:03:27;;;;;;;8.35;3.70;;;25.30;80.60;;;;;;4975495;28;20441;-72
2022/05/13 16:05:53;;;;;;;16.38;5.18;;;25.10;82.50;;;;;;4975609;28;20141;-73
2022/05/13 16:08:18;;;;;;;11.77;3.78;;;25.10;83.00;;;;;;4972728;28;20072;-72
2022/05/13 16:10:44;;;;;;;7.38;3.78;;;25.00;81.80;;;;;;4956697;28;20031;-72
2022/05/13 16:13:21;;;;;;;6.88;3.72;;;25.20;81.70;;;;;;4957410;28;20047;-72
2022/05/13 16:15:56;;;;;;;5.70;3.60;;;25.50;81.30;;;;;;4975424;28;20113;-73
2022/05/13 16:18:25;;;;;;;6.40;3.90;;;25.50;80.20;;;;;;4975536;28;20101;-73
2022/05/13 16:20:53;;;;;;;6.57;3.85;;;25.70;80.70;;;;;;4975588;28;20031;-72
2022/05/13 16:23:22;;;;;;;9.02;4.07;;;25.50;79.10;;;;;;4974062;28;20037;-72
2022/05/13 16:25:48;;;;;;;6.57;3.70;;;25.20;80.40;;;;;;4971167;28;20094;-73
2022/05/13 16:28:16;;;;;;;9.95;3.55;;;25.20;81.20;;;;;;4951540;28;20110;-72
2022/05/13 16:30:42;;;;;;;9.88;3.97;;;25.20;82.50;;;;;;4963238;28;20031;-73
2022/05/13 16:33:08;;;;;;;8.40;3.90;;;25.00;82.70;;;;;;4958853;28;20057;-73
2022/05/13 16:35:34;;;;;;;6.65;3.95;;;24.90;82.10;;;;;;4960636;28;20416;-73
2022/05/13 16:37:59;;;;;;;7.85;4.10;;;24.80;82.20;;;;;;4955985;28;20028;-72
2022/05/13 16:40:30;;;;;;;5.40;3.47;;;24.60;82.50;;;;;;4955080;29;20031;-72
2022/05/13 16:42:56;;;;;;;8.55;3.88;;;24.50;81.20;;;;;;4955131;28;20031;-73
2022/05/13 16:45:23;;;;;;;7.03;3.50;;;24.40;82.20;;;;;;4956304;28;20031;-72
2022/05/13 16:47:50;;;;;;;5.82;3.47;;;24.50;84.10;;;;;;4954836;28;20037;-72
2022/05/13 16:50:19;;;;;;;9.93;4.05;;;24.70;82.80;;;;;;4956207;28;20027;-73
2022/05/13 16:52:45;;;;;;;7.53;4.18;;;24.80;82.40;;;;;;4955774;28;20034;-73
2022/05/13 16:55:13;;;;;;;9.85;3.83;;;24.80;82.30;;;;;;4955594;28;20023;-73
2022/05/13 16:57:39;;;;;;;9.88;4.10;;;24.60;84.50;;;;;;4947583;29;20031;-73
2022/05/13 17:00:08;;;;;;;6.35;3.80;;;24.60;83.30;;;;;;4955841;28;20061;-73
2022/05/13 17:02:34;;;;;;;9.55;3.95;;;24.60;85.20;;;;;;4955615;28;20020;-73
2022/05/13 17:05:01;;;;;;;10.18;4.32;;;24.40;83.90;;;;;;4955097;28;20050;-73
2022/05/13 17:07:27;;;;;;;9.45;4.00;;;24.40;83.50;;;;;;4954660;28;20034;-72
2022/05/13 17:18:05;;;;;;;10.25;4.90;;;24.60;85.80;;;;;;4936129;29;20035;-73
2022/05/13 17:20:32;;;;;;;10.73;4.43;;;24.50;83.80;;;;;;4953774;29;20375;-73
2022/05/13 17:22:57;;;;;;;5.95;3.33;;;24.50;83.70;;;;;;4955147;28;20023;-73
2022/05/13 17:25:24;;;;;;;13.13;4.00;;;24.50;83.60;;;;;;4949481;28;20510;-71
2022/05/13 17:27:54;;;;;;;8.63;4.53;;;24.60;85.20;;;;;;4952282;29;20030;-75
2022/05/13 17:30:21;;;;;;;7.72;3.97;;;24.70;83.40;;;;;;4954485;28;20027;-72
2022/05/13 17:32:48;;;;;;;5.80;3.72;;;24.80;82.30;;;;;;4954090;28;20019;-71
2022/05/13 17:35:16;;;;;;;10.25;4.25;;;24.60;82.00;;;;;;4954784;28;20054;-72
2022/05/13 17:37:50;;;;;;;7.57;4.30;;;24.70;83.00;;;;;;4945616;29;20503;-71
2022/05/13 17:40:37;;;;;;;10.82;3.15;;;24.60;83.60;;;;;;4939181;29;20082;-72
2022/05/13 17:43:11;;;;;;;10.80;3.67;;;24.60;82.70;;;;;;4952577;29;20078;-71
2022/05/13 17:45:38;;;;;;;8.10;4.00;;;24.60;83.20;;;;;;4951630;29;20064;-72
2022/05/13 17:48:05;;;;;;;7.07;3.80;;;24.50;82.10;;;;;;4953692;28;20050;-72
2022/05/13 17:50:33;;;;;;;8.82;3.67;;;24.40;85.20;;;;;;4954134;28;20024;-72
2022/05/13 17:52:58;;;;;;;7.22;4.07;;;24.40;83.40;;;;;;4953255;28;20039;-72
2022/05/13 17:55:24;;;;;;;6.60;3.90;;;24.30;86.80;;;;;;4953983;28;20034;-73
2022/05/13 17:57:50;;;;;;;11.02;3.80;;;24.30;84.90;;;;;;4938593;28;20024;-75
2022/05/13 18:00:19;;;;;;;9.68;4.32;;;24.30;85.40;;;;;;4935456;29;20070;-75
2022/05/13 18:02:45;;;;;;;8.60;3.53;;;24.30;85.10;;;;;;4935274;29;20034;-74
2022/05/13 18:05:13;;;;;;;7.65;3.92;;;24.20;84.40;;;;;;4952393;29;20031;-75
2022/05/13 18:07:39;;;;;;;6.78;3.95;;;24.20;84.90;;;;;;4954502;28;20047;-74
2022/05/13 18:10:05;;;;;;;13.32;4.30;;;24.10;86.10;;;;;;4954009;28;20036;-74
2022/05/13 18:12:31;;;;;;;13.65;4.47;;;24.00;88.50;;;;;;4954715;28;20135;-73
2022/05/13 18:15:02;;;;;;;9.80;4.20;;;23.90;90.60;;;;;;4953676;28;20503;-73
2022/05/13 18:17:28;;;;;;;10.50;4.43;;;23.80;90.30;;;;;;4954399;28;20027;-72
2022/05/13 18:19:55;;;;;;;8.68;3.83;;;23.70;91.00;;;;;;4952351;28;20035;-72
2022/05/13 18:22:23;;;;;;;9.35;5.13;;;23.40;91.90;;;;;;4947526;28;20045;-72
2022/05/13 18:24:49;;;;;;;7.55;4.60;;;23.40;91.80;;;;;;4944879;28;20040;-72
2022/05/13 18:27:15;;;;;;;7.22;4.25;;;23.30;91.80;;;;;;4942848;28;20387;-72
2022/05/13 18:29:41;;;;;;;7.65;3.90;;;23.30;90.80;;;;;;4939068;29;20028;-72
2022/05/13 18:32:08;;;;;;;11.88;4.05;;;23.20;90.60;;;;;;4956545;29;20435;-72
2022/05/13 18:34:34;;;;;;;10.52;4.60;;;23.30;90.80;;;;;;4941282;28;20028;-72
2022/05/13 18:37:00;;;;;;;7.13;4.20;;;23.20;90.40;;;;;;4949923;28;20030;-72
2022/05/13 18:39:26;;;;;;;18.27;5.05;;;23.20;91.50;;;;;;4954602;28;20117;-72
2022/05/13 18:47:21;;;;;;;9.70;4.22;;;22.70;93.20;;;;;;4955896;29;20118;-72
2022/05/13 18:49:48;;;;;;;7.63;4.10;;;22.60;93.50;;;;;;4955997;29;20368;-71
2022/05/13 18:52:14;;;;;;;9.23;4.20;;;22.50;94.20;;;;;;4956331;28;20019;-71
2022/05/13 18:54:40;;;;;;;8.60;5.13;;;22.30;95.20;;;;;;4956002;29;20817;-72
2022/05/13 18:57:06;;;;;;;7.07;4.20;;;22.10;95.80;;;;;;4938525;29;20075;-71
2022/05/13 18:59:32;;;;;;;8.32;4.25;;;22.00;95.80;;;;;;4954626;29;20383;-71
2022/05/13 19:01:58;;;;;;;10.15;4.75;;;21.90;96.30;;;;;;4958088;29;20027;-71
2022/05/13 19:04:25;;;;;;;9.23;4.30;;;21.80;96.60;;;;;;4942855;29;20075;-71
2022/05/13 19:06:51;;;;;;;10.00;4.88;;;21.80;97.00;;;;;;4953214;29;20033;-72
2022/05/13 19:09:19;;;;;;;11.77;4.10;;;21.60;96.80;;;;;;4947005;29;20023;-72
2022/05/13 19:11:44;;;;;;;9.95;4.35;;;21.60;97.10;;;;;;4955677;28;20111;-72
2022/05/13 19:14:10;;;;;;;11.43;4.90;;;21.60;97.10;;;;;;4946203;29;20091;-71
2022/05/13 19:16:37;;;;;;;9.73;4.88;;;21.50;97.00;;;;;;4940634;28;20822;-72
2022/05/13 19:19:03;;;;;;;8.70;4.55;;;21.30;97.50;;;;;;4937451;29;20032;-72
2022/05/13 19:21:30;;;;;;;15.23;4.57;;;21.40;97.70;;;;;;4937935;29;20019;-72
2022/05/13 19:23:56;;;;;;;17.40;4.93;;;21.40;97.80;;;;;;4951051;29;20561;-71
2022/05/13 19:26:23;;;;;;;13.18;5.00;;;21.20;98.20;;;;;;4954524;28;20423;-71
2022/05/13 19:28:49;;;;;;;10.00;4.85;;;21.10;98.70;;;;;;4957453;28;20035;-72
2022/05/13 19:31:18;;;;;;;7.57;4.22;;;21.10;99.10;;;;;;4955526;28;20027;-72
2022/05/13 19:33:45;;;;;;;7.00;4.20;;;21.00;98.80;;;;;;4960032;28;20479;-71
2022/05/13 19:36:12;;;;;;;8.75;5.20;;;20.90;99.30;;;;;;4955945;28;20015;-71
2022/05/13 19:38:38;;;;;;;10.23;5.25;;;20.80;99.90;;;;;;4953686;28;20038;-71
2022/05/13 19:41:06;;;;;;;10.63;4.70;;;20.70;99.90;;;;;;4955682;28;20023;-71
2022/05/13 19:43:34;;;;;;;7.85;4.45;;;20.60;99.90;;;;;;4956010;28;20027;-71
2022/05/13 19:45:59;;;;;;;9.82;4.70;;;20.60;99.90;;;;;;4954719;29;20035;-72
2022/05/13 19:48:25;;;;;;;9.60;4.50;;;20.50;99.90;;;;;;4954033;28;20035;-71
2022/05/13 19:50:51;;;;;;;8.68;5.15;;;20.40;99.90;;;;;;4956390;29;20486;-71
2022/05/13 19:53:19;;;;;;;7.97;4.60;;;20.40;99.90;;;;;;4955980;28;20349;-71
2022/05/13 19:55:45;;;;;;;9.57;5.18;;;20.30;99.90;;;;;;4953381;28;20037;-74
2022/05/13 19:58:18;;;;;;;9.07;4.75;;;20.30;99.90;;;;;;4956496;28;20031;-72
2022/05/13 20:00:46;;;;;;;8.85;4.97;;;20.20;99.90;;;;;;4955133;28;20027;-71
2022/05/13 20:03:13;;;;;;;7.85;4.72;;;20.20;99.90;;;;;;4954566;29;20067;-71
2022/05/13 20:11:07;;;;;;;8.43;5.63;;;20.10;99.90;;;;;;4955359;29;20102;-71
2022/05/13 20:13:35;;;;;;;8.70;5.45;;;20.00;99.90;;;;;;4955676;28;20106;-74
2022/05/13 20:16:03;;;;;;;9.80;5.28;;;19.90;99.90;;;;;;4954042;28;20146;-71
2022/05/13 20:18:33;;;;;;;7.40;5.35;;;19.90;99.90;;;;;;4955271;29;20034;-72
2022/05/13 20:23:44;;;;;;;10.02;5.25;;;19.80;99.90;;;;;;4955600;29;20094;-71
2022/05/13 20:26:17;;;;;;;13.23;5.05;;;19.70;99.90;;;;;;4955314;28;20098;-71
2022/05/13 20:28:43;;;;;;;8.32;5.38;;;19.70;99.90;;;;;;4954339;28;20510;-72
2022/05/13 20:31:10;;;;;;;14.23;5.35;;;19.60;99.90;;;;;;4955084;29;20031;-71
2022/05/13 20:33:37;;;;;;;12.52;5.40;;;19.60;99.90;;;;;;4954863;29;20387;-73
2022/05/13 20:36:05;;;;;;;13.30;6.30;;;19.60;99.90;;;;;;4955574;28;20027;-73
2022/05/13 20:38:31;;;;;;;12.07;5.25;;;19.60;99.90;;;;;;4953185;28;20070;-73
2022/05/13 20:40:57;;;;;;;14.18;5.72;;;19.60;99.90;;;;;;4955146;28;20023;-72
2022/05/13 20:43:22;;;;;;;13.80;5.30;;;19.50;99.90;;;;;;4954974;28;20484;-72
2022/05/13 20:45:48;;;;;;;10.15;6.05;;;19.60;99.90;;;;;;4955085;29;20051;-73
2022/05/13 20:48:14;;;;;;;13.32;5.90;;;19.50;99.90;;;;;;4954615;28;20034;-73
2022/05/13 20:50:40;;;;;;;11.43;6.22;;;19.50;99.90;;;;;;4955020;28;20023;-73
2022/05/13 20:53:06;;;;;;;12.63;6.18;;;19.50;99.90;;;;;;4954555;28;20035;-72
2022/05/13 20:55:34;;;;;;;10.20;5.82;;;19.40;99.90;;;;;;4955291;28;20031;-72
2022/05/13 20:58:00;;;;;;;9.60;6.35;;;19.30;99.90;;;;;;4954937;28;20114;-72
2022/05/13 21:00:27;;;;;;;8.48;5.97;;;19.30;99.90;;;;;;4955088;28;20410;-73
2022/05/13 21:02:53;;;;;;;10.70;6.30;;;19.30;99.90;;;;;;4954591;28;20118;-73
2022/05/13 21:05:23;;;;;;;10.65;6.05;;;19.20;99.90;;;;;;4954812;28;20023;-73
2022/05/13 21:07:51;;;;;;;9.57;5.88;;;19.20;99.90;;;;;;4953263;28;20369;-73
2022/05/13 21:10:24;;;;;;;12.27;6.40;;;19.20;99.90;;;;;;4954593;28;20587;-73
2022/05/13 21:12:51;;;;;;;9.13;6.25;;;19.10;99.90;;;;;;4953456;28;20114;-73
2022/05/13 21:15:17;;;;;;;11.60;6.30;;;19.10;99.90;;;;;;4954654;28;20082;-73
2022/05/13 21:17:43;;;;;;;12.00;5.70;;;19.10;99.90;;;;;;4954948;29;20435;-73
2022/05/13 21:20:11;;;;;;;11.27;6.65;;;19.10;99.90;;;;;;4954621;28;20110;-73
2022/05/13 21:22:37;;;;;;;9.30;5.75;;;19.10;99.90;;;;;;4953795;28;20039;-73
2022/05/13 21:25:03;;;;;;;10.93;5.30;;;19.00;99.90;;;;;;4950006;29;20023;-73
2022/05/13 21:27:29;;;;;;;8.98;6.00;;;19.00;99.90;;;;;;4951270;29;20047;-73
2022/05/13 21:29:55;;;;;;;9.55;6.18;;;18.90;99.90;;;;;;4954971;28;20027;-73
2022/05/13 21:37:49;;;;;;;8.10;5.90;;;18.90;99.90;;;;;;4953806;29;20046;-72
2022/05/13 21:40:16;;;;;;;8.85;6.05;;;18.90;99.90;;;;;;4954354;29;20039;-73
2022/05/13 21:42:41;;;;;;;11.30;6.57;;;18.80;99.90;;;;;;4955094;29;20472;-73
2022/05/13 21:45:08;;;;;;;9.43;5.90;;;18.80;99.90;;;;;;4953462;28;20110;-72
2022/05/13 21:47:34;;;;;;;15.10;6.38;;;18.80;99.90;;;;;;4953717;28;20035;-73
2022/05/13 21:50:00;;;;;;;10.52;6.10;;;18.70;99.90;;;;;;4953777;28;20030;-73
2022/05/13 21:52:25;;;;;;;7.88;5.95;;;18.70;99.90;;;;;;4953833;28;20019;-73
2022/05/13 21:54:53;;;;;;;11.50;5.72;;;18.50;99.90;;;;;;4953059;28;20074;-73
2022/05/13 21:57:25;;;;;;;11.80;6.75;;;18.50;99.90;;;;;;4953920;28;20086;-72
2022/05/13 21:59:51;;;;;;;;;;;18.60;99.90;;;;;;4953727;29;20024;-73
2022/05/13 22:02:18;;;;;;;9.85;6.05;;;18.60;99.90;;;;;;4954085;28;19939;-72
2022/05/13 22:04:43;;;;;;;11.65;6.53;;;18.60;99.90;;;;;;4949768;28;20043;-73
2022/05/13 22:07:09;;;;;;;9.52;6.35;;;18.60;99.90;;;;;;4939137;29;20398;-73
2022/05/13 22:09:36;;;;;;;8.60;6.45;;;18.60;99.90;;;;;;4953110;28;20027;-73
2022/05/13 22:12:02;;;;;;;11.65;6.18;;;18.50;99.90;;;;;;4954068;29;20020;-73
2022/05/13 22:14:28;;;;;;;15.32;6.13;;;18.50;99.90;;;;;;4953129;28;20034;-73
2022/05/13 22:16:54;;;;;;;10.80;6.25;;;18.40;99.90;;;;;;4953561;29;20353;-73
2022/05/13 22:19:22;;;;;;;9.30;5.97;;;18.40;99.90;;;;;;4953930;28;20488;-72
2022/05/13 22:21:48;;;;;;;17.05;6.50;;;18.50;99.90;;;;;;4953406;28;20027;-72
2022/05/13 22:24:15;;;;;;;8.60;6.18;;;18.50;99.90;;;;;;4938695;28;20050;-73
2022/05/13 22:26:42;;;;;;;12.63;6.80;;;18.40;99.90;;;;;;4936571;29;20054;-73
2022/05/13 22:29:09;;;;;;;9.90;7.00;;;18.40;99.90;;;;;;4947656;29;20539;-73
2022/05/13 22:31:35;;;;;;;12.27;6.43;;;18.30;99.90;;;;;;4953769;28;20035;-72
2022/05/13 22:34:01;;;;;;;13.02;6.80;;;18.40;99.90;;;;;;4953335;28;20030;-73